Time;durP1;ratioP1;P1;durP2;ratioP2;P2;SDS_P1;SDS_P2;PMS_P1;PMS_P2;Temp;Humidity;BMP_temperature;BMP_pressure;BME280_temperature;BME280_humidity;BME280_pressure;Samples;Min_cycle;Max_cycle;Signal;HPM_P1;HPM_P2
2022/12/14 00:00:46;;;;;;;24.10;16.38;;;-3.70;99.90;;;;;;5020886;28;20049;-68
2022/12/14 00:03:12;;;;;;;25.60;14.95;;;-3.70;99.90;;;;;;5009515;28;20071;-69
2022/12/14 00:05:38;;;;;;;22.48;12.98;;;-3.60;99.90;;;;;;5026548;28;20110;-68
2022/12/14 00:08:04;;;;;;;22.73;12.88;;;-3.60;99.90;;;;;;5049246;28;20077;-68
2022/12/14 00:10:32;;;;;;;23.10;12.93;;;-3.70;99.90;;;;;;5015725;28;20066;-68
2022/12/14 00:12:58;;;;;;;20.50;12.57;;;-3.70;99.90;;;;;;5016963;28;20054;-69
2022/12/14 00:15:23;;;;;;;22.55;13.63;;;-3.70;99.90;;;;;;5041276;28;20042;-69
2022/12/14 00:17:49;;;;;;;21.90;12.98;;;-3.70;99.90;;;;;;5026998;28;20053;-69
2022/12/14 00:20:15;;;;;;;26.13;14.20;;;-3.70;99.90;;;;;;5014351;28;20053;-68
2022/12/14 00:22:41;;;;;;;23.33;13.32;;;-3.80;99.90;;;;;;5018051;28;20085;-70
2022/12/14 00:25:07;;;;;;;20.15;13.02;;;-3.80;99.90;;;;;;5053735;28;20042;-68
2022/12/14 00:27:32;;;;;;;20.90;13.15;;;-3.80;99.90;;;;;;4998469;28;20070;-68
2022/12/14 00:29:59;;;;;;;20.00;12.23;;;-4.10;99.90;;;;;;5015704;28;20099;-68
2022/12/14 00:32:25;;;;;;;23.15;13.20;;;-3.90;99.90;;;;;;5019691;28;20057;-68
2022/12/14 00:34:51;;;;;;;24.83;13.65;;;-3.90;99.90;;;;;;5013538;28;20062;-68
2022/12/14 00:37:16;;;;;;;22.10;12.82;;;-3.90;99.90;;;;;;5018481;28;20046;-68
2022/12/14 00:39:42;;;;;;;23.10;12.80;;;-3.90;99.90;;;;;;5013917;28;20132;-68
2022/12/14 00:42:07;;;;;;;23.17;12.95;;;-4.00;99.90;;;;;;5038106;28;20064;-69
2022/12/14 00:44:33;;;;;;;20.90;12.80;;;-4.00;99.90;;;;;;5035008;28;20098;-68
2022/12/14 00:46:59;;;;;;;20.20;12.07;;;-4.10;99.90;;;;;;5081797;28;20046;-68
2022/12/14 00:49:25;;;;;;;21.42;12.30;;;-4.10;99.90;;;;;;5051325;28;20054;-68
2022/12/14 00:51:51;;;;;;;21.35;11.77;;;-4.20;99.90;;;;;;5117415;28;20044;-69
2022/12/14 00:54:17;;;;;;;19.23;11.93;;;-4.20;99.90;;;;;;5032731;28;20046;-68
2022/12/14 00:56:42;;;;;;;20.65;11.65;;;-4.20;99.90;;;;;;5014734;28;20088;-68
2022/12/14 00:59:08;;;;;;;25.15;12.88;;;-4.30;99.90;;;;;;5103188;28;20051;-68
2022/12/14 01:01:34;;;;;;;20.23;12.20;;;-4.30;99.90;;;;;;5053528;28;20081;-68
2022/12/14 01:04:18;;;;;;;23.70;12.45;;;-4.40;99.90;;;;;;5015449;28;20065;-68
2022/12/14 01:06:49;;;;;;;23.33;12.60;;;-4.40;99.90;;;;;;5016128;28;20440;-68
2022/12/14 01:09:16;;;;;;;20.52;12.25;;;-4.50;99.90;;;;;;5014952;28;20055;-68
2022/12/14 01:11:42;;;;;;;25.05;13.57;;;-4.50;99.90;;;;;;5012397;28;20058;-68
2022/12/14 01:14:10;;;;;;;22.90;12.93;;;-4.50;99.90;;;;;;5073359;28;20125;-68
2022/12/14 01:16:36;;;;;;;21.17;13.43;;;-4.60;99.90;;;;;;5003999;28;20076;-68
2022/12/14 01:19:02;;;;;;;23.92;14.93;;;-4.60;99.90;;;;;;5013619;28;20053;-68
2022/12/14 01:21:28;;;;;;;21.73;13.43;;;-4.60;99.90;;;;;;5013924;28;20120;-68
2022/12/14 01:23:59;;;;;;;22.90;14.45;;;-4.60;99.90;;;;;;5014640;28;20080;-68
2022/12/14 01:26:26;;;;;;;20.48;11.82;;;-4.60;99.90;;;;;;5012753;28;20050;-68
2022/12/14 01:28:57;;;;;;;22.05;12.65;;;-3.80;99.90;;;;;;5017427;28;20386;-68
2022/12/14 01:31:27;;;;;;;21.35;12.40;;;-4.40;99.90;;;;;;5081092;28;20094;-68
2022/12/14 01:33:53;;;;;;;19.88;11.75;;;-4.70;99.90;;;;;;5011781;28;20050;-68
2022/12/14 01:36:25;;;;;;;19.02;11.45;;;-4.80;99.90;;;;;;5003439;28;20077;-68
2022/12/14 01:39:00;;;;;;;22.00;10.98;;;-4.80;99.90;;;;;;5015632;28;20099;-68
2022/12/14 01:41:28;;;;;;;23.45;11.35;;;-4.90;99.90;;;;;;5016550;28;20536;-68
2022/12/14 01:43:58;;;;;;;19.02;11.23;;;-5.00;99.90;;;;;;5015227;28;20073;-67
2022/12/14 01:46:33;;;;;;;23.25;11.63;;;-5.10;99.90;;;;;;5014064;28;20050;-68
2022/12/14 01:49:21;;;;;;;23.70;12.77;;;-5.10;99.90;;;;;;5025126;28;20083;-68
2022/12/14 01:52:08;;;;;;;20.75;11.57;;;-5.10;99.90;;;;;;5006604;28;20058;-69
2022/12/14 01:54:39;;;;;;;26.75;13.10;;;-5.10;99.90;;;;;;5008112;28;20058;-69
2022/12/14 01:57:05;;;;;;;24.65;13.25;;;-5.00;99.90;;;;;;5010657;28;20038;-68
2022/12/14 01:59:37;;;;;;;21.65;12.57;;;-5.00;99.90;;;;;;5016223;28;20418;-68
2022/12/14 02:02:06;;;;;;;22.52;12.77;;;-4.90;99.90;;;;;;5044038;28;20133;-68
2022/12/14 02:04:37;;;;;;;20.27;11.50;;;-4.80;99.90;;;;;;5010667;28;20038;-68
2022/12/14 02:07:03;;;;;;;22.02;12.10;;;-4.80;99.90;;;;;;5015947;28;20046;-68
2022/12/14 02:09:34;;;;;;;23.73;12.88;;;-4.80;99.90;;;;;;5054978;28;20031;-68
2022/12/14 02:12:27;;;;;;;22.52;13.20;;;-4.80;99.90;;;;;;5040522;28;20049;-68
2022/12/14 02:14:54;;;;;;;22.20;10.90;;;-4.90;99.90;;;;;;5018523;28;20098;-68
2022/12/14 02:17:19;;;;;;;20.27;13.00;;;-5.00;99.90;;;;;;5012942;28;20042;-68
2022/12/14 02:19:48;;;;;;;19.90;12.38;;;-5.10;99.90;;;;;;5014272;28;20056;-68
2022/12/14 02:22:22;;;;;;;23.10;12.75;;;-5.10;99.90;;;;;;5011849;28;20054;-68
2022/12/14 02:25:07;;;;;;;24.10;12.88;;;-5.10;99.90;;;;;;5014747;28;20665;-69
2022/12/14 02:27:48;;;;;;;25.35;12.98;;;-5.10;99.90;;;;;;5014914;28;20042;-68
2022/12/14 02:30:23;;;;;;;22.55;14.18;;;-5.10;99.90;;;;;;5012672;28;20050;-68
2022/12/14 02:33:08;;;;;;;20.52;12.15;;;-5.10;99.90;;;;;;5015380;28;20128;-68
2022/12/14 02:35:57;;;;;;;20.02;11.48;;;-5.10;99.90;;;;;;5012693;28;20058;-68
2022/12/14 02:38:41;;;;;;;22.58;12.90;;;-5.20;99.90;;;;;;5051966;28;20490;-68
2022/12/14 02:41:20;;;;;;;20.48;10.63;;;-5.30;99.90;;;;;;5069054;28;20047;-68
2022/12/14 02:43:48;;;;;;;20.92;13.10;;;-5.40;99.90;;;;;;5087335;28;20045;-68
2022/12/14 02:46:27;;;;;;;20.90;11.27;;;-5.40;99.90;;;;;;5008700;28;20054;-68
2022/12/14 02:48:58;;;;;;;17.92;11.77;;;-5.40;99.90;;;;;;5008073;28;20891;-68
2022/12/14 02:51:31;;;;;;;22.13;12.90;;;-5.50;99.90;;;;;;5061231;28;20675;-68
2022/12/14 02:54:08;;;;;;;20.38;11.63;;;-5.60;99.90;;;;;;5038488;28;20050;-68
2022/12/14 02:56:43;;;;;;;18.98;12.25;;;-5.50;99.90;;;;;;5066600;28;20531;-67
2022/12/14 02:59:09;;;;;;;19.95;11.30;;;-5.60;99.90;;;;;;5049342;28;20049;-67
2022/12/14 03:01:37;;;;;;;20.92;12.60;;;-5.60;99.90;;;;;;5013578;28;20046;-67
2022/12/14 03:04:03;;;;;;;18.10;10.85;;;-5.70;99.90;;;;;;5013727;28;20050;-67
2022/12/14 03:06:29;;;;;;;21.20;12.18;;;-5.70;99.90;;;;;;5013262;28;20053;-67
2022/12/14 03:09:13;;;;;;;22.60;11.55;;;-5.70;99.90;;;;;;5023157;28;20057;-67
2022/12/14 03:12:02;;;;;;;21.25;12.70;;;-5.60;99.90;;;;;;4995944;28;20050;-67
2022/12/14 03:14:34;;;;;;;27.25;13.82;;;-5.70;99.90;;;;;;5010242;28;20049;-67
2022/12/14 03:17:09;;;;;;;22.33;12.00;;;-5.60;99.90;;;;;;5031836;28;20041;-67
2022/12/14 03:19:39;;;;;;;22.73;12.13;;;-5.60;99.90;;;;;;5009957;28;20046;-67
2022/12/14 03:22:10;;;;;;;21.05;11.68;;;-5.70;99.90;;;;;;5011420;28;20043;-67
2022/12/14 03:24:45;;;;;;;24.67;13.27;;;-5.70;99.90;;;;;;5066780;27;20067;-68
2022/12/14 03:27:26;;;;;;;20.08;11.07;;;-5.80;99.90;;;;;;5075433;28;20041;-67
2022/12/14 03:30:03;;;;;;;20.65;11.30;;;-5.80;99.90;;;;;;5053374;28;20418;-68
2022/12/14 03:32:31;;;;;;;22.45;12.88;;;-5.80;99.90;;;;;;5015072;28;20517;-67
2022/12/14 03:34:59;;;;;;;20.23;11.57;;;-5.90;99.90;;;;;;5084773;28;20050;-68
2022/12/14 03:37:48;;;;;;;21.48;11.75;;;-5.90;99.90;;;;;;5073122;28;20047;-67
2022/12/14 03:40:15;;;;;;;20.17;11.25;;;-5.90;99.90;;;;;;5017383;28;20038;-68
2022/12/14 03:43:06;;;;;;;20.83;11.70;;;-5.90;99.90;;;;;;5046269;28;20077;-68
2022/12/14 03:46:13;;;;;;;21.33;11.65;;;-6.00;99.90;;;;;;5015228;28;20103;-68
2022/12/14 03:48:55;;;;;;;21.55;10.77;;;-6.10;99.90;;;;;;5007974;28;20057;-68
2022/12/14 03:51:25;;;;;;;14.50;9.82;;;-5.70;99.90;;;;;;5022308;28;20046;-68
2022/12/14 03:54:16;;;;;;;22.88;11.20;;;-6.20;99.90;;;;;;5014233;28;20454;-68
2022/12/14 03:57:19;;;;;;;20.52;9.50;;;-6.30;99.90;;;;;;5015161;28;20042;-68
2022/12/14 04:00:09;;;;;;;18.25;11.73;;;-6.50;99.90;;;;;;5058880;28;20077;-68
2022/12/14 04:02:43;;;;;;;20.33;11.52;;;-6.60;99.90;;;;;;5065832;28;20499;-68
2022/12/14 04:05:20;;;;;;;21.40;12.07;;;-6.50;99.90;;;;;;5010969;28;20038;-68
2022/12/14 04:08:01;;;;;;;22.90;12.65;;;-6.40;99.90;;;;;;5008999;28;20045;-68
2022/12/14 04:19:11;;;;;;;23.85;12.35;;;-6.20;99.90;;;;;;5013213;28;20507;-68
2022/12/14 04:21:54;;;;;;;19.55;10.27;;;-6.20;99.90;;;;;;5034496;28;20050;-68
2022/12/14 04:27:44;;;;;;;24.60;12.00;;;-6.20;99.90;;;;;;5022408;28;20046;-68
2022/12/14 04:30:12;;;;;;;21.48;11.32;;;-6.20;99.90;;;;;;5054797;28;20111;-68
2022/12/14 04:32:59;;;;;;;22.25;12.65;;;-6.10;99.90;;;;;;5025292;28;20040;-67
2022/12/14 04:35:38;;;;;;;22.50;12.05;;;-6.10;99.90;;;;;;5007473;28;20061;-68
2022/12/14 04:38:13;;;;;;;18.88;10.88;;;-5.90;99.90;;;;;;5008077;28;20050;-68
2022/12/14 04:40:56;;;;;;;18.63;10.85;;;-6.00;99.90;;;;;;5013500;28;20050;-67
2022/12/14 04:43:26;;;;;;;21.02;11.63;;;-6.00;99.90;;;;;;5012547;28;20041;-67
2022/12/14 04:45:59;;;;;;;20.38;11.20;;;-6.10;99.90;;;;;;5060102;28;20043;-68
2022/12/14 04:48:38;;;;;;;20.73;11.70;;;-6.20;99.90;;;;;;5118770;28;20055;-68
2022/12/14 04:51:18;;;;;;;21.77;12.40;;;-6.20;99.90;;;;;;4999017;28;20112;-68
2022/12/14 04:53:48;;;;;;;21.48;11.82;;;-6.20;99.90;;;;;;5016538;28;20118;-67
2022/12/14 04:56:22;;;;;;;21.40;11.95;;;-6.30;99.90;;;;;;5014734;28;20084;-68
2022/12/14 04:58:48;;;;;;;21.15;11.68;;;-6.30;99.90;;;;;;5016385;28;20151;-68
2022/12/14 05:01:43;;;;;;;19.42;11.02;;;-6.30;99.90;;;;;;5029671;28;20098;-67
2022/12/14 05:04:30;;;;;;;22.52;11.30;;;-6.40;99.90;;;;;;5052542;28;20050;-68
2022/12/14 05:07:11;;;;;;;20.13;11.18;;;-6.40;99.90;;;;;;5048952;28;20050;-67
2022/12/14 05:09:59;;;;;;;19.35;11.05;;;-6.30;99.90;;;;;;4996072;28;20050;-67
2022/12/14 05:12:49;;;;;;;22.58;11.45;;;-6.30;99.90;;;;;;5003303;28;20068;-68
2022/12/14 05:15:22;;;;;;;19.77;10.43;;;-6.30;99.90;;;;;;5031266;28;20037;-67
2022/12/14 05:17:49;;;;;;;21.88;11.25;;;-6.40;99.90;;;;;;5019744;28;20072;-68
2022/12/14 05:20:18;;;;;;;20.80;11.20;;;-6.30;99.90;;;;;;5014548;28;20046;-68
2022/12/14 05:22:44;;;;;;;21.08;10.90;;;-6.30;99.90;;;;;;5014496;28;20038;-68
2022/12/14 05:25:10;;;;;;;19.55;11.55;;;-6.30;99.90;;;;;;5062306;28;20048;-68
2022/12/14 05:27:37;;;;;;;17.25;10.55;;;-6.30;99.90;;;;;;5014669;28;20047;-67
2022/12/14 05:30:05;;;;;;;20.25;10.95;;;-6.30;99.90;;;;;;5094322;28;20046;-67
2022/12/14 05:32:31;;;;;;;19.50;10.77;;;-6.40;99.90;;;;;;5086211;28;20039;-67
2022/12/14 05:34:57;;;;;;;24.55;11.60;;;-6.50;99.90;;;;;;5055594;28;20084;-67
2022/12/14 05:37:23;;;;;;;19.67;11.00;;;-6.50;99.90;;;;;;5026151;28;20050;-67
2022/12/14 05:39:49;;;;;;;21.45;11.30;;;-6.50;99.90;;;;;;5034826;28;20120;-68
2022/12/14 05:42:15;;;;;;;21.70;11.45;;;-6.40;99.90;;;;;;5034421;28;20045;-68
2022/12/14 05:44:40;;;;;;;18.38;10.30;;;-6.40;99.90;;;;;;5023998;28;20067;-68
2022/12/14 05:47:06;;;;;;;22.85;11.23;;;-6.40;99.90;;;;;;5015439;28;20042;-68
2022/12/14 05:49:32;;;;;;;19.98;10.77;;;-5.60;99.90;;;;;;5014218;28;20079;-67
2022/12/14 05:51:57;;;;;;;18.77;10.27;;;-6.40;99.90;;;;;;5012647;28;20153;-68
2022/12/14 05:54:23;;;;;;;22.10;11.18;;;-6.40;99.90;;;;;;5015969;28;20037;-68
2022/12/14 05:56:49;;;;;;;21.70;11.10;;;-6.40;99.90;;;;;;5015144;28;20504;-67
2022/12/14 05:59:15;;;;;;;18.88;9.98;;;-6.50;99.90;;;;;;5116718;28;20039;-67
2022/12/14 06:01:42;;;;;;;19.55;10.50;;;-6.50;99.90;;;;;;5082246;28;20044;-67
2022/12/14 06:04:13;;;;;;;17.45;10.52;;;-6.50;99.90;;;;;;5061831;28;20057;-68
2022/12/14 06:06:38;;;;;;;20.95;11.75;;;-6.50;99.90;;;;;;5015912;28;20046;-67
2022/12/14 06:09:09;;;;;;;20.50;11.73;;;-6.40;99.90;;;;;;5012982;28;20585;-67
2022/12/14 06:11:41;;;;;;;20.63;10.68;;;-6.40;99.90;;;;;;5012415;28;20042;-67
2022/12/14 06:14:08;;;;;;;17.88;10.55;;;-6.40;99.90;;;;;;5017488;28;20058;-67
2022/12/14 06:16:34;;;;;;;18.05;10.32;;;-6.40;99.90;;;;;;5011862;28;20045;-68
2022/12/14 06:19:02;;;;;;;19.70;10.43;;;-6.40;99.90;;;;;;5055960;28;20049;-67
2022/12/14 06:21:31;;;;;;;18.13;10.63;;;-6.50;99.90;;;;;;5013459;28;20042;-67
2022/12/14 06:23:57;;;;;;;19.48;10.98;;;-6.50;99.90;;;;;;5015287;28;20063;-67
2022/12/14 06:26:24;;;;;;;20.75;11.32;;;-6.50;99.90;;;;;;5035861;28;20046;-67
2022/12/14 06:28:50;;;;;;;18.88;10.65;;;-6.60;99.90;;;;;;5020853;28;20124;-67
2022/12/14 06:31:21;;;;;;;19.25;10.90;;;-6.60;99.90;;;;;;5012699;28;20089;-67
2022/12/14 06:33:47;;;;;;;20.30;10.52;;;-6.50;99.90;;;;;;5064352;28;20047;-67
2022/12/14 06:36:22;;;;;;;20.00;10.45;;;-6.50;99.90;;;;;;5093170;28;20060;-67
2022/12/14 06:38:51;;;;;;;17.75;10.43;;;-5.90;99.90;;;;;;5034073;28;20079;-67
2022/12/14 06:41:18;;;;;;;18.23;10.23;;;-6.60;99.90;;;;;;5046272;28;20040;-67
2022/12/14 06:43:43;;;;;;;17.60;9.80;;;-6.70;99.90;;;;;;5084687;28;20122;-68
2022/12/14 06:46:11;;;;;;;16.85;9.75;;;-6.70;99.90;;;;;;5118918;28;20043;-68
2022/12/14 06:48:37;;;;;;;18.15;9.73;;;-6.70;99.90;;;;;;5027697;28;20049;-67
2022/12/14 06:51:04;;;;;;;19.60;10.20;;;-6.70;99.90;;;;;;4994917;28;20050;-67
2022/12/14 06:53:30;;;;;;;18.40;10.35;;;-6.70;99.90;;;;;;5088967;28;20372;-67
2022/12/14 06:56:11;;;;;;;25.15;10.00;;;-6.70;99.90;;;;;;5012983;28;20101;-68
2022/12/14 06:58:37;;;;;;;20.73;10.57;;;-5.40;99.90;;;;;;5016107;28;20057;-67
2022/12/14 07:01:08;;;;;;;21.67;9.63;;;-6.70;99.90;;;;;;5013358;28;20034;-67
2022/12/14 07:03:34;;;;;;;18.67;10.27;;;-6.70;99.90;;;;;;5015304;28;20131;-68
2022/12/14 07:06:01;;;;;;;20.52;10.57;;;-6.70;99.90;;;;;;5013682;28;20042;-67
2022/12/14 07:08:29;;;;;;;19.05;10.07;;;-6.70;99.90;;;;;;5013022;28;20038;-67
2022/12/14 07:10:55;;;;;;;19.90;10.30;;;-6.70;99.90;;;;;;5015326;28;20139;-67
2022/12/14 07:13:21;;;;;;;19.30;10.88;;;-6.70;99.90;;;;;;5007223;28;20068;-67
2022/12/14 07:15:51;;;;;;;17.83;9.27;;;-6.10;99.90;;;;;;5015568;28;20076;-67
2022/12/14 07:18:17;;;;;;;19.38;10.73;;;-6.50;99.90;;;;;;5042500;28;20046;-67
2022/12/14 07:20:43;;;;;;;24.13;10.65;;;-6.70;99.90;;;;;;5014514;28;20046;-68
2022/12/14 07:23:09;;;;;;;20.35;11.23;;;-6.70;99.90;;;;;;5072845;28;20036;-67
2022/12/14 07:25:35;;;;;;;19.00;10.10;;;-6.70;99.90;;;;;;5076099;28;20085;-67
2022/12/14 07:28:01;;;;;;;16.58;9.82;;;-6.70;99.90;;;;;;5116374;28;20540;-67
2022/12/14 07:30:26;;;;;;;18.15;10.07;;;-6.70;99.90;;;;;;5011965;28;20042;-68
2022/12/14 07:32:52;;;;;;;18.13;9.75;;;-6.70;99.90;;;;;;5012446;28;20057;-67
2022/12/14 07:35:18;;;;;;;17.73;9.73;;;-6.80;99.90;;;;;;5011202;28;20053;-68
2022/12/14 07:37:43;;;;;;;19.10;10.10;;;-6.80;99.90;;;;;;5014704;28;20058;-68
2022/12/14 07:40:09;;;;;;;17.90;10.05;;;-6.80;99.90;;;;;;5058429;28;20159;-68
2022/12/14 07:42:35;;;;;;;19.13;10.57;;;-6.80;99.90;;;;;;5014520;28;20038;-68
2022/12/14 07:45:01;;;;;;;19.23;11.02;;;-6.90;99.90;;;;;;5059274;28;20107;-67
2022/12/14 07:47:29;;;;;;;19.70;11.13;;;-6.90;99.90;;;;;;5080737;28;20034;-67
2022/12/14 07:49:55;;;;;;;20.23;10.07;;;-6.90;99.90;;;;;;5013578;28;20074;-67
2022/12/14 07:52:21;;;;;;;21.02;10.52;;;-6.90;99.90;;;;;;4991554;28;20105;-68
2022/12/14 07:54:47;;;;;;;18.45;9.93;;;-6.90;99.90;;;;;;5008732;28;20081;-67
2022/12/14 07:57:13;;;;;;;19.35;11.25;;;-6.90;99.90;;;;;;5012007;28;20054;-67
2022/12/14 07:59:38;;;;;;;15.77;10.02;;;-6.90;99.90;;;;;;5013056;28;20421;-68
2022/12/14 08:02:04;;;;;;;18.13;10.07;;;-6.90;99.90;;;;;;5023011;28;20412;-67
2022/12/14 08:04:33;;;;;;;18.95;10.23;;;-7.00;99.90;;;;;;5116153;28;20073;-68
2022/12/14 08:06:58;;;;;;;17.58;9.60;;;-6.90;99.90;;;;;;5024670;28;20042;-68
2022/12/14 08:09:24;;;;;;;19.27;10.20;;;-6.90;99.90;;;;;;5011782;28;20379;-68
2022/12/14 08:11:50;;;;;;;18.83;9.75;;;-6.90;99.90;;;;;;4997646;28;20073;-67
2022/12/14 08:14:17;;;;;;;16.88;9.95;;;-6.90;99.90;;;;;;5001468;28;20072;-67
2022/12/14 08:16:44;;;;;;;16.30;9.93;;;-6.90;99.90;;;;;;5001691;28;20412;-67
2022/12/14 08:19:11;;;;;;;18.10;9.70;;;-6.90;99.90;;;;;;5009443;28;20051;-67
2022/12/14 08:21:37;;;;;;;20.52;10.38;;;-6.90;99.90;;;;;;4993682;28;20061;-68
2022/12/14 08:24:03;;;;;;;16.73;9.32;;;-6.80;99.90;;;;;;5009017;28;20473;-67
2022/12/14 08:26:29;;;;;;;18.15;10.13;;;-6.80;99.90;;;;;;4999075;28;20045;-67
2022/12/14 08:28:55;;;;;;;16.58;9.65;;;-6.70;99.90;;;;;;5017331;28;20042;-68
2022/12/14 08:31:24;;;;;;;18.85;10.27;;;-6.70;99.90;;;;;;5072785;28;20072;-67
2022/12/14 08:33:50;;;;;;;16.63;9.70;;;-6.50;99.90;;;;;;5005897;28;20132;-67
2022/12/14 08:36:23;;;;;;;19.50;9.57;;;-6.60;99.90;;;;;;5005277;28;20572;-67
2022/12/14 08:38:57;;;;;;;19.65;8.55;;;-6.00;99.90;;;;;;4999468;28;20055;-67
2022/12/14 08:41:24;;;;;;;19.02;9.73;;;-6.40;99.90;;;;;;4999378;28;20086;-67
2022/12/14 08:43:51;;;;;;;15.65;9.43;;;-6.30;99.90;;;;;;4999680;28;20049;-67
2022/12/14 08:46:17;;;;;;;17.05;9.63;;;-6.20;99.90;;;;;;5004313;28;20131;-67
2022/12/14 08:48:43;;;;;;;17.23;9.18;;;-6.10;99.90;;;;;;4995115;28;20047;-68
2022/12/14 08:51:10;;;;;;;17.05;9.45;;;-6.00;99.90;;;;;;5018534;28;20054;-67
2022/12/14 08:53:37;;;;;;;15.70;9.02;;;-5.90;99.90;;;;;;5021994;28;20385;-68
2022/12/14 08:56:11;;;;;;;18.65;9.45;;;-5.90;99.90;;;;;;5025789;28;20053;-67
2022/12/14 08:58:38;;;;;;;16.02;8.98;;;-5.80;99.90;;;;;;5020680;28;20054;-68
2022/12/14 09:01:07;;;;;;;15.27;9.00;;;-5.70;99.90;;;;;;5007885;28;20041;-67
2022/12/14 09:03:33;;;;;;;18.25;9.02;;;-5.60;99.90;;;;;;5018429;28;20546;-68
2022/12/14 09:06:07;;;;;;;16.52;9.13;;;-5.40;99.90;;;;;;5019006;28;20072;-68
2022/12/14 09:08:33;;;;;;;17.23;9.35;;;-5.40;99.90;;;;;;5018397;28;20527;-68
2022/12/14 09:11:00;;;;;;;17.05;9.90;;;-5.30;99.90;;;;;;5019954;28;20054;-68
2022/12/14 09:13:26;;;;;;;21.25;9.88;;;-5.30;99.90;;;;;;5020844;28;20425;-69
2022/12/14 09:16:01;;;;;;;15.88;9.05;;;-5.20;99.90;;;;;;5069495;28;20493;-69
2022/12/14 09:18:27;;;;;;;15.30;9.73;;;-5.10;99.90;;;;;;5043264;28;26730;-69
2022/12/14 09:20:54;;;;;;;18.92;9.85;;;-5.10;99.90;;;;;;5030718;28;20042;-69
2022/12/14 09:23:22;;;;;;;17.27;9.68;;;-5.00;99.90;;;;;;5032734;28;20085;-69
2022/12/14 09:26:11;;;;;;;18.05;9.18;;;-5.00;99.90;;;;;;5019676;28;20399;-69
2022/12/14 09:28:38;;;;;;;16.40;9.35;;;-4.90;99.90;;;;;;5020135;28;20065;-69
2022/12/14 09:31:07;;;;;;;14.27;8.88;;;-4.80;99.90;;;;;;5020486;28;20060;-69
2022/12/14 09:33:33;;;;;;;19.40;9.38;;;-4.80;99.90;;;;;;5018060;28;20054;-69
2022/12/14 09:36:11;;;;;;;17.10;10.07;;;-4.60;99.90;;;;;;5026894;28;20650;-69
2022/12/14 09:38:38;;;;;;;15.80;9.15;;;-4.60;99.90;;;;;;5017952;28;20050;-69
2022/12/14 09:41:19;;;;;;;15.63;8.43;;;-4.40;99.90;;;;;;5019346;28;20049;-69
2022/12/14 09:43:54;;;;;;;15.77;9.05;;;-4.30;99.90;;;;;;5016146;28;20046;-69
2022/12/14 09:46:49;;;;;;;15.05;8.23;;;-3.60;99.90;;;;;;5016672;28;20774;-69
2022/12/14 09:49:28;;;;;;;17.55;9.13;;;-4.20;99.90;;;;;;5018172;28;20045;-69
2022/12/14 09:51:57;;;;;;;16.50;8.65;;;-4.10;99.90;;;;;;5017097;28;20046;-69
2022/12/14 09:54:26;;;;;;;16.45;9.38;;;-4.00;99.90;;;;;;5019056;28;20105;-69
2022/12/14 09:56:56;;;;;;;13.15;7.97;;;-3.80;99.90;;;;;;5016739;28;20038;-69
2022/12/14 09:59:25;;;;;;;14.68;8.18;;;-3.70;99.90;;;;;;5018196;28;20038;-69
2022/12/14 10:02:05;;;;;;;17.25;9.13;;;-3.50;99.90;;;;;;5017527;28;20119;-69
2022/12/14 10:04:48;;;;;;;12.80;8.27;;;-3.20;99.90;;;;;;5027580;28;20046;-69
2022/12/14 10:07:25;;;;;;;14.35;8.88;;;-2.90;99.90;;;;;;5028424;28;20112;-69
2022/12/14 10:09:57;;;;;;;16.45;9.00;;;-2.40;99.90;;;;;;5017196;28;20038;-69
2022/12/14 10:12:28;;;;;;;16.88;9.60;;;-1.80;99.90;;;;;;5017186;28;20046;-69
2022/12/14 10:15:13;;;;;;;16.67;8.93;;;-1.30;99.90;;;;;;5058503;28;20371;-70
2022/12/14 10:17:56;;;;;;;13.85;7.78;;;-0.50;99.90;;;;;;5020872;28;20050;-70
2022/12/14 10:20:50;;;;;;;12.95;7.57;;;0.20;99.90;;;;;;5030424;28;20511;-70
2022/12/14 10:23:20;;;;;;;14.73;7.72;;;0.90;99.90;;;;;;5033932;28;20076;-69
2022/12/14 10:25:50;;;;;;;12.75;7.40;;;1.70;99.90;;;;;;5028343;28;20045;-70
2022/12/14 10:28:39;;;;;;;14.90;7.78;;;2.00;99.90;;;;;;5031677;28;20041;-70
2022/12/14 10:31:10;;;;;;;13.82;7.40;;;2.50;99.90;;;;;;5018659;28;20050;-70
2022/12/14 10:33:41;;;;;;;12.60;7.63;;;3.00;99.90;;;;;;5017577;28;20042;-70
2022/12/14 10:36:17;;;;;;;11.95;7.40;;;3.50;99.90;;;;;;5026373;28;20123;-70
2022/12/14 10:39:06;;;;;;;11.98;7.47;;;3.70;99.90;;;;;;5016763;28;20046;-70
2022/12/14 10:41:41;;;;;;;14.50;8.32;;;4.00;99.90;;;;;;5024163;28;20060;-70
2022/12/14 10:44:55;;;;;;;13.55;8.60;;;4.40;99.90;;;;;;5015821;28;20042;-70
2022/12/14 10:47:25;;;;;;;10.93;6.63;;;4.60;99.90;;;;;;4956379;28;20042;-70
2022/12/14 10:50:19;;;;;;;12.25;8.07;;;4.60;99.90;;;;;;5022645;28;20084;-70
2022/12/14 10:52:49;;;;;;;12.63;7.40;;;3.90;99.90;;;;;;5016036;28;20041;-70
2022/12/14 10:55:31;;;;;;;12.95;7.57;;;2.80;99.90;;;;;;5017893;28;20053;-70
2022/12/14 10:57:57;;;;;;;13.75;7.72;;;2.80;99.90;;;;;;5024536;28;20081;-70
2022/12/14 11:00:22;;;;;;;13.45;8.10;;;1.20;99.90;;;;;;5031339;28;20042;-69
2022/12/14 11:02:53;;;;;;;12.25;8.38;;;0.70;99.90;;;;;;5025480;28;20048;-69
2022/12/14 11:05:25;;;;;;;12.20;7.95;;;0.80;99.90;;;;;;5019867;28;20041;-69
2022/12/14 11:07:51;;;;;;;12.52;7.07;;;0.00;99.90;;;;;;5028840;28;20064;-69
2022/12/14 11:10:21;;;;;;;13.13;7.93;;;-0.40;99.90;;;;;;5016719;28;20050;-69
2022/12/14 11:13:17;;;;;;;14.68;7.63;;;-0.70;99.90;;;;;;5016916;28;20037;-69
2022/12/14 11:15:48;;;;;;;12.65;8.00;;;-1.00;99.90;;;;;;5036530;28;20041;-70
2022/12/14 11:18:14;;;;;;;13.57;8.13;;;-1.20;99.90;;;;;;5025407;28;20121;-70
2022/12/14 11:20:57;;;;;;;11.88;7.72;;;-1.20;99.90;;;;;;5015775;28;20081;-69
2022/12/14 11:23:27;;;;;;;14.27;8.60;;;-1.40;99.90;;;;;;5016129;28;20107;-69
2022/12/14 11:25:58;;;;;;;13.93;7.65;;;-1.50;99.90;;;;;;5024204;28;20060;-69
2022/12/14 11:28:53;;;;;;;14.68;7.85;;;-1.50;99.90;;;;;;5024337;28;20042;-69
2022/12/14 11:31:30;;;;;;;13.23;7.32;;;-1.50;99.90;;;;;;5028854;28;20045;-69
2022/12/14 11:33:57;;;;;;;12.93;7.63;;;-1.50;99.90;;;;;;5036324;28;20508;-69
2022/12/14 11:36:37;;;;;;;11.82;7.78;;;-1.50;99.90;;;;;;5031661;28;20037;-69
2022/12/14 11:39:22;;;;;;;16.17;7.82;;;-1.60;99.90;;;;;;5023085;28;20461;-69
2022/12/14 11:42:01;;;;;;;12.07;7.60;;;-1.60;99.90;;;;;;5035739;28;20041;-69
2022/12/14 11:44:37;;;;;;;15.63;8.32;;;-1.60;99.90;;;;;;5067908;28;20079;-69
2022/12/14 11:47:10;;;;;;;;;;;-1.60;99.90;;;;;;5036718;28;20129;-69
2022/12/14 11:49:39;;;;;;;12.88;7.45;;;-1.60;99.90;;;;;;5037613;28;20020;-69
2022/12/14 11:52:04;;;;;;;12.73;7.38;;;-1.70;99.90;;;;;;5056052;28;20140;-70
2022/12/14 11:54:32;;;;;;;13.93;7.93;;;-1.70;99.90;;;;;;5021343;28;20085;-69
2022/12/14 11:57:07;;;;;;;11.38;6.43;;;-1.70;99.90;;;;;;5033209;28;20056;-70
2022/12/14 11:59:53;;;;;;;12.85;7.13;;;-1.70;99.90;;;;;;5038765;28;20103;-70
2022/12/14 12:02:29;;;;;;;13.82;7.47;;;-1.70;99.90;;;;;;5037901;28;20045;-69
2022/12/14 12:05:01;;;;;;;;;;;-1.70;99.90;;;;;;5040353;28;20379;-69
2022/12/14 12:07:40;;;;;;;15.07;7.40;;;-1.40;99.90;;;;;;5052535;28;19921;-70
2022/12/14 12:10:18;;;;;;;13.23;6.90;;;-1.60;99.90;;;;;;5037633;28;20109;-70
2022/12/14 12:12:59;;;;;;;12.07;6.97;;;-1.60;99.90;;;;;;5039240;28;20046;-70
2022/12/14 12:15:35;;;;;;;10.07;6.13;;;-1.60;99.90;;;;;;5061944;28;20085;-69
2022/12/14 12:18:20;;;;;;;13.52;7.43;;;-1.50;99.90;;;;;;5037697;28;20049;-69
2022/12/14 12:21:19;;;;;;;11.23;6.47;;;-1.50;99.90;;;;;;5038557;28;20049;-69
2022/12/14 12:23:51;;;;;;;12.10;7.15;;;-1.40;99.90;;;;;;5003029;28;20058;-69
2022/12/14 12:26:38;;;;;;;10.27;6.65;;;-1.30;99.90;;;;;;5036914;28;20083;-69
2022/12/14 12:29:29;;;;;;;10.98;6.57;;;-1.20;99.90;;;;;;5040386;28;20052;-69
2022/12/14 12:32:02;;;;;;;11.05;6.97;;;-1.00;99.90;;;;;;5040173;28;20493;-69
2022/12/14 12:34:53;;;;;;;12.73;7.18;;;-0.90;99.90;;;;;;5044907;28;20050;-69
2022/12/14 12:37:43;;;;;;;10.90;7.13;;;-0.90;99.90;;;;;;5032341;28;20128;-69
2022/12/14 12:40:15;;;;;;;10.85;7.18;;;-0.90;99.90;;;;;;5029456;28;20076;-69
2022/12/14 12:43:01;;;;;;;12.18;7.00;;;-0.60;99.90;;;;;;5054804;28;20458;-70
2022/12/14 12:45:36;;;;;;;10.80;6.77;;;-0.10;99.90;;;;;;5026232;28;20049;-69
2022/12/14 12:48:09;;;;;;;11.65;7.43;;;0.30;99.90;;;;;;5038531;28;20047;-69
2022/12/14 12:50:41;;;;;;;11.48;6.82;;;0.60;99.90;;;;;;5038928;28;20045;-69
2022/12/14 12:53:15;;;;;;;11.43;7.15;;;0.90;99.90;;;;;;5057516;28;20081;-69
2022/12/14 12:55:47;;;;;;;12.15;6.50;;;1.10;99.90;;;;;;5052452;28;20053;-69
2022/12/14 12:58:28;;;;;;;11.15;7.10;;;1.10;99.90;;;;;;5024733;28;20040;-69
2022/12/14 13:00:59;;;;;;;10.27;6.60;;;1.10;99.90;;;;;;5037727;28;20056;-69
2022/12/14 13:03:36;;;;;;;14.73;7.13;;;1.00;99.90;;;;;;5040264;28;20056;-69
2022/12/14 13:06:24;;;;;;;11.63;6.88;;;0.90;99.90;;;;;;5041117;28;20045;-69
2022/12/14 13:08:55;;;;;;;12.75;7.35;;;1.00;99.90;;;;;;5054961;28;20065;-69
2022/12/14 13:11:30;;;;;;;10.88;6.47;;;1.00;99.90;;;;;;5029488;28;20463;-70